Time;durP1;ratioP1;P1;durP2;ratioP2;P2;SDS_P1;SDS_P2;PMS_P1;PMS_P2;Temp;Humidity;BMP_temperature;BMP_pressure;BME280_temperature;BME280_humidity;BME280_pressure;Samples;Min_cycle;Max_cycle;Signal;HPM_P1;HPM_P2
2023/01/13 00:01:14;;;;;;;;;0.00;0.00;;;;;11.69;77.74;100806.41;6210000;22;45849;-89
2023/01/13 00:03:42;;;;;;;;;0.00;0.00;;;;;11.70;77.64;100816.94;6252867;22;45320;-91
2023/01/13 00:10:08;;;;;;;;;0.00;0.00;;;;;11.66;78.31;100801.19;6182976;22;45624;-91
2023/01/13 00:13:15;;;;;;;;;;;;;;;;;;;;;
2023/01/13 00:30:58;;;;;;;;;;;;;;;;;;;;;
2023/01/13 00:40:28;;;;;;;;;0.00;0.00;;;;;11.81;77.31;100793.13;6084010;23;45489;-90
2023/01/13 00:55:30;;;;;;;;;0.33;0.00;;;;;11.71;76.68;100778.28;6007464;23;44902;-90
2023/01/13 07:24:52;;;;;;;;;;;;;;;;;;;;;
2023/01/13 07:44:04;;;;;;;;;2.67;2.00;;;;;9.83;69.63;101111.16;6251640;22;45634;-92
2023/01/13 07:53:53;;;;;;;;;2.25;1.25;;;;;9.75;69.72;101129.53;6252067;22;45338;-90
2023/01/13 07:56:19;;;;;;;;;3.75;2.00;;;;;9.67;69.96;101120.72;6147634;22;45153;-87
2023/01/13 07:58:49;;;;;;;;;1.25;1.25;;;;;9.71;70.05;101130.38;6225258;22;47353;-88
2023/01/13 08:01:40;;;;;;;;;1.00;1.00;;;;;9.72;69.95;101140.91;6223268;22;45427;-91
2023/01/13 08:10:36;;;;;;;;;2.25;2.25;;;;;9.67;69.92;101147.00;6069879;23;45542;-92
2023/01/13 08:26:41;;;;;;;;;7.50;3.25;;;;;9.67;70.11;101162.78;6078211;23;45485;-88
2023/01/13 08:29:09;;;;;;;;;2.25;2.25;;;;;9.69;69.96;101153.16;6162161;23;45315;-84
2023/01/13 08:31:37;;;;;;;;;6.00;3.25;;;;;9.78;69.90;101163.72;6228310;22;45571;-86
2023/01/13 08:34:08;;;;;;;;;2.00;2.00;;;;;9.80;70.08;101164.59;6220758;22;48137;-82
2023/01/13 08:36:40;;;;;;;;;3.00;1.00;;;;;9.89;69.83;101174.28;6245337;22;45445;-83
2023/01/13 08:39:07;;;;;;;;;2.00;1.00;;;;;9.81;69.75;101163.75;6221139;22;45212;-84
2023/01/13 08:41:57;;;;;;;;;4.75;3.75;;;;;9.88;69.85;101181.31;6249350;22;45358;-87
2023/01/13 08:45:10;;;;;;;;;2.50;1.75;;;;;9.96;69.78;101196.28;6221045;22;46140;-87
2023/01/13 08:48:30;;;;;;;;;1.00;1.00;;;;;9.80;69.60;101179.50;6249432;22;45358;-83
2023/01/13 08:59:08;;;;;;;;;;;;;;;;;;;;;
2023/01/13 09:20:38;;;;;;;;;1.50;1.50;;;;;10.01;69.84;101211.22;5735224;24;45322;-82
2023/01/13 09:27:33;;;;;;;;;;;;;;;;;;;;;
2023/01/13 09:34:58;;;;;;;;;3.00;2.50;;;;;10.10;69.28;101215.63;5754163;24;45527;-88
2023/01/13 09:57:59;;;;;;;;;;;;;;;;;;;;;
2023/01/13 10:04:49;;;;;;;;;2.00;1.00;;;;;11.13;66.78;101279.31;6104374;23;45481;-87
2023/01/13 10:07:18;;;;;;;;;3.00;1.67;;;;;11.03;66.66;101249.41;6122243;23;45599;-84
2023/01/13 11:16:57;;;;;;;;;1.00;0.00;;;;;14.82;57.40;101335.00;6245508;22;45259;-83
2023/01/13 11:20:41;;;;;;;;;;;;;;;;;;;;;
2023/01/13 11:24:10;;;;;;;;;;;;;;;;;;;;;
2023/01/13 11:28:01;;;;;;;;;;;;;;;;;;;;;
2023/01/13 11:31:29;;;;;;;;;2.00;2.00;;;;;12.92;58.86;101353.16;6062605;23;72536;-88
2023/01/13 12:30:09;;;;;;;;;2.00;1.00;;;;;15.81;50.80;101372.59;6255738;22;46843;-91
2023/01/13 12:39:39;;;;;;;;;3.00;3.00;;;;;16.00;49.80;101380.28;6275624;22;45401;-86
2023/01/13 12:45:21;;;;;;;;;;;;;;;;;;;;;
2023/01/13 12:47:48;;;;;;;;;3.00;1.33;;;;;15.72;50.26;101371.88;6279144;22;74786;-89
2023/01/13 12:50:31;;;;;;;;;1.00;1.00;;;;;15.72;50.07;101393.13;6278117;22;45271;-89
2023/01/13 12:53:40;;;;;;;;;;;;;;;;;;;;;
2023/01/13 12:56:36;;;;;;;;;;;;;;;;;;;;;
2023/01/13 12:59:50;;;;;;;;;;;;;;;;;;;;;
2023/01/13 13:02:28;;;;;;;;;3.33;3.33;;;;;15.38;50.00;101378.50;6283580;22;72018;-88
2023/01/13 13:04:56;;;;;;;;;3.00;2.00;;;;;15.33;49.45;101374.16;6263802;22;45347;-89
2023/01/13 13:08:04;;;;;;;;;3.33;2.33;;;;;15.30;49.99;101371.53;6284714;22;45234;-89
2023/01/13 13:10:36;;;;;;;;;1.33;1.00;;;;;15.39;49.99;101353.69;6145509;23;46972;-91
2023/01/13 13:16:28;;;;;;;;;3.00;3.00;;;;;15.73;49.74;101371.84;6137869;23;45363;-90
2023/01/13 13:19:21;;;;;;;;;3.33;2.00;;;;;16.28;49.93;101372.75;6166098;23;44749;-87
2023/01/13 13:22:11;;;;;;;;;4.00;3.00;;;;;16.84;48.97;101384.16;6154699;23;47059;-88
2023/01/13 13:24:50;;;;;;;;;1.67;1.67;;;;;16.70;48.42;101383.47;6194457;22;45649;-90
2023/01/13 13:27:36;;;;;;;;;6.00;3.00;;;;;16.46;48.04;101392.78;6251436;22;45452;-88
2023/01/13 13:34:19;;;;;;;;;3.33;2.00;;;;;15.62;48.44;101405.59;6244280;22;45640;-88
2023/01/13 13:37:18;;;;;;;;;;;;;;;;;;;;;
2023/01/13 13:56:15;;;;;;;;;3.00;2.67;;;;;14.00;50.51;101424.91;6252491;22;45396;-93
2023/01/13 13:59:34;;;;;;;;;;;;;;;;;;;;;
2023/01/13 14:02:20;;;;;;;;;;;;;;;;;;;;;
2023/01/13 14:04:48;;;;;;;;;3.67;3.67;;;;;14.73;50.57;101419.94;6245197;22;67432;-92
2023/01/13 14:07:20;;;;;;;;;1.00;1.00;;;;;14.85;50.00;101438.34;6246468;22;45404;-89
2023/01/13 14:09:59;;;;;;;;;6.00;2.00;;;;;14.80;49.86;101444.59;6243545;22;48118;-88
2023/01/13 14:45:20;;;;;;;;;;;;;;;;;;;;;
2023/01/13 14:52:19;;;;;;;;;;;;;;;;;;;;;
2023/01/13 15:20:07;;;;;;;;;;;;;;;;;;;;;
2023/01/13 15:23:39;;;;;;;;;;;;;;;;;;;;;
2023/01/13 15:26:57;;;;;;;;;;;;;;;;;;;;;
2023/01/13 15:29:40;;;;;;;;;1.00;1.00;;;;;11.85;53.96;101574.88;6209109;22;72825;-86
2023/01/13 15:32:37;;;;;;;;;1.00;1.00;;;;;11.68;54.30;101569.50;6250546;22;46954;-87
2023/01/13 15:48:37;;;;;;;;;;;;;;;;;;;;;
2023/01/13 15:51:22;;;;;;;;;;;;;;;;;;;;;
2023/01/13 15:53:48;;;;;;;;;2.00;2.00;;;;;11.31;56.54;101594.81;6275601;22;73124;-88
2023/01/13 15:59:44;;;;;;;;;3.50;3.50;;;;;11.23;57.10;101610.56;6231384;22;45307;-90
2023/01/13 16:02:51;;;;;;;;;3.00;2.00;;;;;11.12;57.42;101593.75;6249704;22;45317;-88
2023/01/13 16:22:01;;;;;;;;;4.75;2.75;;;;;10.71;58.37;101615.34;6254519;22;46249;-88
2023/01/13 16:24:27;;;;;;;;;2.00;1.75;;;;;10.77;58.45;101628.56;6250061;22;45208;-88
2023/01/13 16:26:52;;;;;;;;;6.00;4.50;;;;;10.67;58.65;101632.00;6278799;22;45387;-88
2023/01/13 16:29:18;;;;;;;;;4.50;4.00;;;;;10.65;58.81;101634.63;6248908;22;45332;-88
2023/01/13 16:31:43;;;;;;;;;3.75;2.00;;;;;10.67;58.88;101645.19;6275520;22;45297;-88
2023/01/13 16:34:08;;;;;;;;;5.00;2.25;;;;;10.61;58.65;101648.59;6250140;22;45329;-89
2023/01/13 16:36:35;;;;;;;;;1.25;1.25;;;;;10.51;58.82;101639.75;6278526;22;45219;-86
2023/01/13 16:39:01;;;;;;;;;4.25;1.75;;;;;10.54;58.72;101655.56;6248219;22;45397;-89
2023/01/13 16:41:27;;;;;;;;;3.00;3.00;;;;;10.45;58.74;101650.22;6276770;22;45509;-86
2023/01/13 16:43:52;;;;;;;;;1.50;1.00;;;;;10.47;58.54;101660.75;6249335;22;46031;-88
2023/01/13 16:46:24;;;;;;;;;2.75;1.75;;;;;10.52;58.79;101673.09;6278241;22;45360;-89
2023/01/13 16:48:51;;;;;;;;;3.50;2.00;;;;;10.49;59.02;101672.19;6274063;22;45678;-89
2023/01/13 16:51:21;;;;;;;;;5.00;3.25;;;;;10.44;58.71;101677.38;6248028;22;47683;-89
2023/01/13 16:53:46;;;;;;;;;2.00;2.00;;;;;10.41;58.79;101679.97;6249633;22;45362;-90
2023/01/13 16:56:20;;;;;;;;;1.50;1.50;;;;;10.29;58.80;101671.94;6249630;22;45282;-89
2023/01/13 16:58:47;;;;;;;;;1.75;1.75;;;;;10.27;59.03;101669.28;6249016;22;45683;-90
2023/01/13 17:01:21;;;;;;;;;1.75;1.75;;;;;10.38;58.97;101693.13;6249564;22;48018;-90
2023/01/13 17:03:50;;;;;;;;;0.33;0.33;;;;;10.26;59.09;101678.00;6277776;22;45244;-89
2023/01/13 17:06:19;;;;;;;;;1.50;1.50;;;;;10.24;58.92;101678.88;6250143;22;45312;-90
2023/01/13 17:08:44;;;;;;;;;3.75;2.00;;;;;10.22;58.93;101684.09;6247521;22;45428;-84
2023/01/13 17:11:11;;;;;;;;;6.00;4.25;;;;;10.25;59.22;101699.94;6247083;22;45906;-86
2023/01/13 17:13:36;;;;;;;;;2.00;1.00;;;;;10.30;59.24;101718.44;6249201;22;45306;-86
2023/01/13 17:16:02;;;;;;;;;0.75;0.25;;;;;10.23;59.54;101706.03;6247642;22;45268;-88
2023/01/13 17:18:27;;;;;;;;;4.50;3.00;;;;;10.14;59.45;101689.25;6249245;22;45484;-87
2023/01/13 17:20:53;;;;;;;;;3.25;3.25;;;;;10.23;59.69;101714.81;6246327;22;48004;-87
2023/01/13 17:23:18;;;;;;;;;2.75;2.00;;;;;10.13;59.88;101692.78;6247981;22;45169;-87
2023/01/13 17:25:44;;;;;;;;;2.00;2.00;;;;;10.03;59.88;101680.34;6249670;22;45265;-87
2023/01/13 17:28:09;;;;;;;;;0.75;0.25;;;;;10.05;59.93;101690.88;6249019;22;45454;-86
2023/01/13 17:30:34;;;;;;;;;3.00;2.75;;;;;10.12;60.13;101712.03;6275415;22;45524;-87
2023/01/13 17:33:00;;;;;;;;;1.50;1.50;;;;;10.01;60.28;101708.38;6275192;22;45295;-86
2023/01/13 17:35:25;;;;;;;;;3.00;1.50;;;;;9.98;60.79;101710.97;6275328;22;45250;-86
2023/01/13 17:37:52;;;;;;;;;4.50;2.75;;;;;10.08;60.89;101730.41;6275309;22;45410;-87
2023/01/13 17:40:17;;;;;;;;;2.75;2.75;;;;;10.07;61.07;101720.72;6249016;22;47959;-87
2023/01/13 17:42:43;;;;;;;;;3.25;1.50;;;;;10.14;61.29;101757.69;6274036;22;45390;-87
2023/01/13 17:45:10;;;;;;;;;2.50;2.50;;;;;10.07;61.44;101726.00;6249623;22;45352;-85
2023/01/13 17:47:39;;;;;;;;;3.00;1.50;;;;;10.05;61.55;101740.84;6250116;22;45469;-86
2023/01/13 17:50:05;;;;;;;;;2.00;2.00;;;;;10.13;61.37;101752.38;6249482;22;48490;-84
2023/01/13 17:52:30;;;;;;;;;3.00;2.75;;;;;10.05;61.74;101752.28;6277239;22;46057;-86
2023/01/13 17:54:55;;;;;;;;;3.50;2.25;;;;;10.06;62.37;101737.38;6249243;22;45368;-87
2023/01/13 17:57:21;;;;;;;;;3.50;1.00;;;;;10.02;62.82;101736.44;6249419;22;45335;-87
2023/01/13 17:59:46;;;;;;;;;2.67;1.00;;;;;9.99;62.77;101753.94;6276902;22;45661;-86
2023/01/13 18:02:12;;;;;;;;;1.50;1.25;;;;;9.86;62.99;101740.63;6249050;22;45406;-86
2023/01/13 18:04:38;;;;;;;;;3.75;1.50;;;;;9.90;63.25;101760.81;6276415;22;45365;-86
2023/01/13 18:07:05;;;;;;;;;2.50;1.00;;;;;9.82;63.61;101754.56;6276710;22;45315;-86
2023/01/13 18:09:31;;;;;;;;;2.25;2.25;;;;;9.72;63.77;101747.38;6249340;22;47267;-86
2023/01/13 18:11:59;;;;;;;;;4.50;2.50;;;;;9.76;64.07;101750.97;6248597;22;45360;-86
2023/01/13 18:14:25;;;;;;;;;2.00;1.25;;;;;9.70;64.22;101754.34;6276132;22;45415;-86
2023/01/13 18:16:52;;;;;;;;;3.50;1.00;;;;;9.70;64.20;101765.78;6249150;22;45465;-87
2023/01/13 18:27:33;;;;;;;;;2.00;2.00;;;;;9.62;65.44;101771.75;6277278;22;45107;-86
2023/01/13 18:30:00;;;;;;;;;3.50;2.00;;;;;9.55;65.01;101764.63;6276318;22;45464;-86
2023/01/13 18:32:30;;;;;;;;;5.00;3.00;;;;;9.48;65.19;101751.38;6247261;22;45716;-86
2023/01/13 18:34:57;;;;;;;;;5.00;4.25;;;;;9.46;65.22;101741.69;6278149;22;45308;-85
2023/01/13 18:37:23;;;;;;;;;2.00;2.00;;;;;9.58;65.19;101770.81;6275709;22;45553;-86
2023/01/13 18:39:49;;;;;;;;;6.50;4.25;;;;;9.58;65.52;101772.56;6276758;22;45405;-86
2023/01/13 18:44:58;;;;;;;;;3.75;2.00;;;;;9.47;65.40;101754.88;6276813;22;45276;-86
2023/01/13 18:47:24;;;;;;;;;5.25;3.00;;;;;9.48;65.18;101747.88;6249418;22;45412;-86
2023/01/13 18:49:50;;;;;;;;;5.75;3.50;;;;;9.52;65.19;101752.34;6249020;22;48323;-86
2023/01/13 18:52:15;;;;;;;;;4.25;2.00;;;;;9.56;65.22;101753.25;6250190;22;45399;-86
2023/01/13 18:54:41;;;;;;;;;7.75;4.50;;;;;9.49;65.47;101736.50;6279303;22;45361;-86
2023/01/13 18:57:09;;;;;;;;;9.50;8.50;;;;;9.50;65.07;101736.53;6251421;22;45232;-86
2023/01/13 18:59:35;;;;;;;;;5.00;3.50;;;;;9.46;65.41;101732.09;6250055;22;46835;-86
2023/01/13 19:02:02;;;;;;;;;4.75;4.75;;;;;9.59;65.30;101759.44;6249653;22;45253;-87
2023/01/13 19:04:28;;;;;;;;;6.00;4.50;;;;;9.60;65.05;101765.59;6249915;22;45271;-86
2023/01/13 19:06:59;;;;;;;;;6.50;4.50;;;;;9.47;65.17;101731.22;6250048;22;45443;-87
2023/01/13 19:09:25;;;;;;;;;6.00;5.25;;;;;9.47;65.16;101730.34;6275387;22;47070;-85
2023/01/13 19:11:51;;;;;;;;;5.00;5.00;;;;;9.45;65.03;101722.41;6249933;22;45173;-85
2023/01/13 19:14:34;;;;;;;;;6.00;5.00;;;;;9.60;65.30;101761.22;6249085;22;45445;-86
2023/01/13 19:17:07;;;;;;;;;3.00;3.00;;;;;9.45;65.25;101727.66;6249893;22;45338;-85
2023/01/13 19:19:33;;;;;;;;;4.75;4.75;;;;;9.44;64.98;101723.28;6275323;22;46019;-86
2023/01/13 19:21:58;;;;;;;;;3.00;3.00;;;;;9.56;65.25;101754.13;6248119;22;45526;-85
2023/01/13 19:24:26;;;;;;;;;2.50;2.25;;;;;9.45;65.27;101719.78;6249787;22;45181;-86
2023/01/13 19:26:53;;;;;;;;;4.75;3.75;;;;;9.61;65.13;101751.59;6277766;22;45421;-86
2023/01/13 19:29:19;;;;;;;;;5.75;4.00;;;;;9.47;65.32;101732.97;6277647;22;45413;-86
2023/01/13 19:31:44;;;;;;;;;6.00;4.00;;;;;9.48;65.17;101742.59;6249761;22;45348;-87
2023/01/13 19:34:10;;;;;;;;;9.75;4.50;;;;;9.48;65.34;101746.13;6277851;22;45298;-87
2023/01/13 19:36:35;;;;;;;;;5.00;4.25;;;;;9.55;65.33;101762.00;6249781;22;45504;-87
2023/01/13 19:39:01;;;;;;;;;6.75;5.00;;;;;9.59;65.34;101772.59;6250213;22;47971;-86
2023/01/13 19:46:56;;;;;;;;;4.75;3.00;;;;;9.46;65.46;101752.19;6277749;22;45300;-87
2023/01/13 19:49:21;;;;;;;;;7.25;3.25;;;;;9.48;65.53;101763.63;6276608;22;45376;-86
2023/01/13 19:51:47;;;;;;;;;4.50;2.25;;;;;9.47;65.38;101761.88;6247798;22;45241;-87
2023/01/13 19:54:12;;;;;;;;;3.50;3.50;;;;;9.47;65.66;101769.75;6277513;22;45570;-84
2023/01/13 19:56:38;;;;;;;;;4.75;4.00;;;;;9.53;65.62;101774.25;6275727;22;45287;-90
2023/01/13 19:59:03;;;;;;;;;6.00;4.75;;;;;9.38;65.77;101753.81;6252967;22;47200;-87
2023/01/13 20:01:39;;;;;;;;;4.25;2.00;;;;;9.38;65.79;101754.72;6252860;22;45626;-90
2023/01/13 20:04:35;;;;;;;;;;;;;;;;;;;;;
2023/01/13 20:07:04;;;;;;;;;4.00;3.25;;;;;9.49;65.86;101770.69;6279947;22;72337;-89
2023/01/13 20:09:30;;;;;;;;;4.75;3.50;;;;;9.40;66.16;101760.88;6250762;22;46774;-88
2023/01/13 20:11:56;;;;;;;;;5.00;3.25;;;;;9.48;66.24;101768.88;6251134;22;45455;-89
2023/01/13 20:15:09;;;;;;;;;4.50;3.75;;;;;9.44;66.35;101769.72;6250760;22;45668;-88
2023/01/13 20:25:22;;;;;;;;;;;;;;;;;;;;;
2023/01/13 20:31:47;;;;;;;;;;;;;;;;;;;;;
2023/01/13 22:07:05;;;;;;;;;4.50;4.00;;;;;9.23;66.29;101704.53;5934323;23;45564;-85
2023/01/13 22:09:55;;;;;;;;;6.50;3.25;;;;;9.36;66.47;101731.91;5988281;23;45648;-86
2023/01/13 22:14:04;;;;;;;;;10.75;5.50;;;;;9.36;66.55;101724.03;5990134;23;44810;-86
2023/01/13 22:41:56;;;;;;;;;8.75;5.00;;;;;9.34;66.88;101729.25;6070545;23;45649;-90
2023/01/13 22:45:07;;;;;;;;;;;;;;;;;;;;;
2023/01/13 22:47:48;;;;;;;;;;;;;;;;;;;;;
2023/01/13 22:50:53;;;;;;;;;;;;;;;;;;;;;
2023/01/13 22:53:50;;;;;;;;;;;;;;;;;;;;;
2023/01/13 22:57:02;;;;;;;;;6.25;3.00;;;;;9.38;67.32;101728.44;6171068;23;69225;-87
2023/01/13 23:00:45;;;;;;;;;;;;;;;;;;;;;
2023/01/13 23:07:00;;;;;;;;;;;;;;;;;;;;;
2023/01/13 23:20:37;;;;;;;;;;;;;;;;;;;;;
2023/01/13 23:23:59;;;;;;;;;;;;;;;;;;;;;
2023/01/13 23:29:54;;;;;;;;;6.25;4.50;;;;;9.71;68.15;101691.28;5968314;23;45420;-87
2023/01/13 23:32:19;;;;;;;;;3.00;2.00;;;;;9.69;68.14;101679.84;5989394;23;45185;-87
2023/01/13 23:34:44;;;;;;;;;4.50;4.00;;;;;9.77;68.05;101679.97;6037261;23;45184;-85
2023/01/13 23:37:10;;;;;;;;;5.25;2.75;;;;;9.72;68.21;101664.13;6149517;22;45332;-84
2023/01/13 23:39:35;;;;;;;;;2.00;2.00;;;;;9.66;68.20;101653.53;6257565;22;46101;-85
2023/01/13 23:42:01;;;;;;;;;3.75;2.75;;;;;9.78;68.34;101678.22;6282514;22;45310;-88
2023/01/13 23:44:26;;;;;;;;;3.00;2.00;;;;;9.74;68.19;101660.66;6285792;22;44778;-85
2023/01/13 23:46:52;;;;;;;;;0.00;0.00;;;;;9.70;68.51;101652.72;6255362;22;45113;-88
2023/01/13 23:49:17;;;;;;;;;2.00;2.00;;;;;9.78;68.36;101663.31;6251609;22;47087;-86
2023/01/13 23:51:42;;;;;;;;;3.50;2.00;;;;;9.77;68.59;101639.66;6251283;22;45318;-86
2023/01/13 23:54:08;;;;;;;;;4.00;4.00;;;;;9.81;68.42;101649.34;6280434;22;45392;-86
2023/01/13 23:56:59;;;;;;;;;4.25;2.00;;;;;9.81;68.69;101637.09;6252412;22;45466;-86
2023/01/13 23:59:25;;;;;;;;;2.00;2.00;;;;;9.70;68.70;101612.38;6254190;22;45290;-89
